KLM70Y EGFF-EHAM
Flight info
| Callsign | KLM70Y |
|---|---|
| Flight time | 1h 12m |
| Altitude | 29000 |
| Route | LEKCI P4 HAWFA L607 ALHAD P72 IPRIL M197 REDFA |
| Aircraft | F28/M-SDFIRWY/H |
Departure
| Time | 2026-04-28 17:27 |
|---|---|
| Airport | Cardiff International Airport (EGFF) |
Arrival
| Time | 2026-04-28 18:39 |
|---|---|
| Airport | Amsterdam Airport Schiphol (EHAM) |
| Time | Latitude | Longitude | Altitude | Speed | Heading |
|---|---|---|---|---|---|
| 2026-04-28 16:45 | 51.39958 | -3.34303 | 220 ft | 0 kts | 297° |
| 2026-04-28 17:15 | 51.39954 | -3.34291 | 220 ft | 4 kts | 294° |
| 2026-04-28 17:15 | 51.39946 | -3.34250 | 220 ft | 4 kts | 274° |
| 2026-04-28 17:15 | 51.39953 | -3.34213 | 221 ft | 4 kts | 218° |
| 2026-04-28 17:16 | 51.39958 | -3.34208 | 219 ft | 0 kts | 205° |
| 2026-04-28 17:20 | 51.39947 | -3.34216 | 220 ft | 2 kts | 206° |
| 2026-04-28 17:20 | 51.39918 | -3.34239 | 220 ft | 5 kts | 206° |
| 2026-04-28 17:21 | 51.39885 | -3.34265 | 221 ft | 6 kts | 206° |
| 2026-04-28 17:21 | 51.39851 | -3.34312 | 222 ft | 7 kts | 254° |
| 2026-04-28 17:21 | 51.39867 | -3.34401 | 224 ft | 11 kts | 297° |
| 2026-04-28 17:22 | 51.39979 | -3.34751 | 217 ft | 20 kts | 297° |
| 2026-04-28 17:22 | 51.40040 | -3.34944 | 219 ft | 19 kts | 296° |
| 2026-04-28 17:22 | 51.40098 | -3.35130 | 221 ft | 17 kts | 296° |
| 2026-04-28 17:23 | 51.40152 | -3.35404 | 217 ft | 8 kts | 252° |
| 2026-04-28 17:23 | 51.40143 | -3.35432 | 214 ft | 0 kts | 238° |
| 2026-04-28 17:24 | 51.40141 | -3.35438 | 214 ft | 4 kts | 236° |
| 2026-04-28 17:24 | 51.40103 | -3.35496 | 216 ft | 9 kts | 212° |
| 2026-04-28 17:24 | 51.40067 | -3.35560 | 217 ft | 7 kts | 263° |
| 2026-04-28 17:24 | 51.40080 | -3.35652 | 217 ft | 10 kts | 299° |
| 2026-04-28 17:25 | 51.40135 | -3.35731 | 216 ft | 9 kts | 323° |
| 2026-04-28 17:25 | 51.40111 | -3.35760 | 216 ft | 0 kts | 119° |
| 2026-04-28 17:26 | 51.40050 | -3.35565 | 220 ft | 54 kts | 116° |
| 2026-04-28 17:26 | 51.39771 | -3.34680 | 219 ft | 122 kts | 117° |
| 2026-04-28 17:26 | 51.39305 | -3.33204 | 422 ft | 166 kts | 111° |
| 2026-04-28 17:27 | 51.38760 | -3.31480 | 1185 ft | 175 kts | 112° |
| 2026-04-28 17:27 | 51.38127 | -3.29694 | 1722 ft | 193 kts | 116° |
| 2026-04-28 17:27 | 51.37436 | -3.27805 | 2346 ft | 199 kts | 114° |
| 2026-04-28 17:27 | 51.36775 | -3.25742 | 2768 ft | 218 kts | 111° |
| 2026-04-28 17:28 | 51.36111 | -3.23455 | 2875 ft | 229 kts | 110° |
| 2026-04-28 17:28 | 51.36094 | -3.18833 | 3755 ft | 212 kts | 51° |
| 2026-04-28 17:28 | 51.37276 | -3.17446 | 4287 ft | 213 kts | 31° |
| 2026-04-28 17:29 | 51.38594 | -3.16359 | 4796 ft | 213 kts | 31° |
| 2026-04-28 17:29 | 51.39901 | -3.15257 | 5285 ft | 212 kts | 33° |
| 2026-04-28 17:29 | 51.41192 | -3.14084 | 5696 ft | 214 kts | 33° |
| 2026-04-28 17:30 | 51.44055 | -3.12697 | 6514 ft | 212 kts | 44° |
| 2026-04-28 17:30 | 51.44967 | -3.08504 | 7359 ft | 206 kts | 85° |
| 2026-04-28 17:30 | 51.45191 | -3.06246 | 7769 ft | 206 kts | 75° |
| 2026-04-28 17:31 | 51.45622 | -3.04051 | 8186 ft | 206 kts | 73° |
| 2026-04-28 17:31 | 51.46565 | -2.99714 | 9019 ft | 206 kts | 72° |
| 2026-04-28 17:32 | 51.47501 | -2.95355 | 9805 ft | 212 kts | 73° |
| 2026-04-28 17:32 | 51.47975 | -2.93040 | 10223 ft | 221 kts | 73° |
| 2026-04-28 17:32 | 51.48452 | -2.90673 | 10553 ft | 225 kts | 73° |
| 2026-04-28 17:32 | 51.48933 | -2.88256 | 10890 ft | 230 kts | 74° |
| 2026-04-28 17:33 | 51.49420 | -2.85779 | 11222 ft | 236 kts | 73° |
| 2026-04-28 17:33 | 51.49916 | -2.83224 | 11557 ft | 243 kts | 74° |
| 2026-04-28 17:33 | 51.50415 | -2.80618 | 11821 ft | 252 kts | 74° |
| 2026-04-28 17:33 | 51.50765 | -2.78779 | 12061 ft | 258 kts | 74° |
| 2026-04-28 17:34 | 51.51474 | -2.75023 | 12528 ft | 271 kts | 74° |
| 2026-04-28 17:34 | 51.52027 | -2.72078 | 12890 ft | 281 kts | 74° |
| 2026-04-28 17:34 | 51.52610 | -2.69040 | 13257 ft | 289 kts | 73° |
| 2026-04-28 17:34 | 51.53216 | -2.65914 | 13625 ft | 297 kts | 73° |
| 2026-04-28 17:35 | 51.53543 | -2.62603 | 13995 ft | 305 kts | 88° |
| 2026-04-28 17:35 | 51.53441 | -2.59158 | 14337 ft | 314 kts | 93° |
| 2026-04-28 17:35 | 51.53228 | -2.55629 | 14715 ft | 319 kts | 94° |
| 2026-04-28 17:35 | 51.52971 | -2.52083 | 15199 ft | 321 kts | 95° |
| 2026-04-28 17:36 | 51.52688 | -2.48524 | 15694 ft | 322 kts | 95° |
| 2026-04-28 17:36 | 51.52403 | -2.44947 | 16183 ft | 323 kts | 94° |
| 2026-04-28 17:36 | 51.52122 | -2.41363 | 16679 ft | 324 kts | 94° |
| 2026-04-28 17:36 | 51.51860 | -2.37772 | 17179 ft | 324 kts | 94° |
| 2026-04-28 17:37 | 51.51602 | -2.34176 | 17687 ft | 324 kts | 94° |
| 2026-04-28 17:37 | 51.51360 | -2.30591 | 18209 ft | 323 kts | 94° |
| 2026-04-28 17:37 | 51.51126 | -2.27008 | 18722 ft | 322 kts | 93° |
| 2026-04-28 17:37 | 51.50886 | -2.23439 | 19182 ft | 321 kts | 93° |
| 2026-04-28 17:38 | 51.50638 | -2.19877 | 19640 ft | 322 kts | 93° |
| 2026-04-28 17:38 | 51.50379 | -2.16317 | 20112 ft | 319 kts | 93° |
| 2026-04-28 17:38 | 51.50124 | -2.12831 | 20583 ft | 317 kts | 92° |
| 2026-04-28 17:38 | 51.49871 | -2.09335 | 21066 ft | 314 kts | 92° |
| 2026-04-28 17:39 | 51.49612 | -2.05869 | 21556 ft | 311 kts | 92° |
| 2026-04-28 17:39 | 51.49359 | -2.02435 | 22015 ft | 308 kts | 91° |
| 2026-04-28 17:39 | 51.48852 | -1.95617 | 22785 ft | 307 kts | 91° |
| 2026-04-28 17:40 | 51.48606 | -1.92226 | 23194 ft | 304 kts | 91° |
| 2026-04-28 17:40 | 51.48372 | -1.88858 | 23597 ft | 303 kts | 91° |
| 2026-04-28 17:40 | 51.48143 | -1.85513 | 23998 ft | 301 kts | 91° |
| 2026-04-28 17:40 | 51.47911 | -1.82184 | 24347 ft | 299 kts | 91° |
| 2026-04-28 17:41 | 51.47689 | -1.79046 | 24679 ft | 297 kts | 91° |
| 2026-04-28 17:41 | 51.47515 | -1.75770 | 25031 ft | 291 kts | 83° |
| 2026-04-28 17:41 | 51.47875 | -1.72629 | 25413 ft | 285 kts | 75° |
| 2026-04-28 17:41 | 51.48331 | -1.69551 | 25777 ft | 282 kts | 75° |
| 2026-04-28 17:42 | 51.48797 | -1.66512 | 26144 ft | 279 kts | 75° |
| 2026-04-28 17:42 | 51.49108 | -1.64522 | 26394 ft | 277 kts | 75° |
| 2026-04-28 17:42 | 51.49707 | -1.60587 | 26891 ft | 272 kts | 75° |
| 2026-04-28 17:42 | 51.50144 | -1.57658 | 27266 ft | 267 kts | 75° |
| 2026-04-28 17:43 | 51.50569 | -1.54779 | 27652 ft | 263 kts | 75° |
| 2026-04-28 17:43 | 51.50987 | -1.51945 | 28036 ft | 258 kts | 75° |
| 2026-04-28 17:43 | 51.51400 | -1.49173 | 28421 ft | 253 kts | 75° |
| 2026-04-28 17:43 | 51.51808 | -1.46426 | 28701 ft | 252 kts | 75° |
| 2026-04-28 17:44 | 51.52216 | -1.43692 | 28901 ft | 252 kts | 76° |
| 2026-04-28 17:44 | 51.52633 | -1.40950 | 29112 ft | 253 kts | 75° |
| 2026-04-28 17:44 | 51.53058 | -1.38200 | 29240 ft | 255 kts | 75° |
| 2026-04-28 17:44 | 51.53338 | -1.36352 | 29269 ft | 259 kts | 76° |
| 2026-04-28 17:45 | 51.53757 | -1.33500 | 29271 ft | 266 kts | 76° |
| 2026-04-28 17:45 | 51.54182 | -1.30575 | 29281 ft | 272 kts | 76° |
| 2026-04-28 17:45 | 51.54617 | -1.27579 | 29286 ft | 279 kts | 76° |
| 2026-04-28 17:45 | 51.55064 | -1.24508 | 29291 ft | 285 kts | 76° |
| 2026-04-28 17:46 | 51.55523 | -1.21364 | 29296 ft | 292 kts | 76° |
| 2026-04-28 17:46 | 51.55988 | -1.18152 | 29296 ft | 298 kts | 76° |
| 2026-04-28 17:46 | 51.56467 | -1.14870 | 29282 ft | 305 kts | 76° |
| 2026-04-28 17:47 | 51.57450 | -1.08110 | 29274 ft | 315 kts | 76° |
| 2026-04-28 17:47 | 51.58458 | -1.01144 | 29275 ft | 325 kts | 76° |
| 2026-04-28 17:48 | 51.59487 | -0.93964 | 29268 ft | 334 kts | 77° |
| 2026-04-28 17:48 | 51.60564 | -0.86582 | 29273 ft | 343 kts | 77° |
| 2026-04-28 17:49 | 51.61673 | -0.79006 | 29270 ft | 352 kts | 77° |
| 2026-04-28 17:49 | 51.62761 | -0.71305 | 29275 ft | 359 kts | 77° |
| 2026-04-28 17:50 | 51.63870 | -0.63408 | 29272 ft | 365 kts | 77° |
| 2026-04-28 17:50 | 51.64956 | -0.55636 | 29273 ft | 370 kts | 77° |
| 2026-04-28 17:51 | 51.66091 | -0.47475 | 29268 ft | 375 kts | 77° |
| 2026-04-28 17:51 | 51.66662 | -0.43359 | 29394 ft | 378 kts | 77° |
| 2026-04-28 17:51 | 51.67233 | -0.39214 | 29401 ft | 380 kts | 77° |
| 2026-04-28 17:52 | 51.68382 | -0.30882 | 29399 ft | 377 kts | 77° |
| 2026-04-28 17:52 | 51.70021 | -0.18895 | 29386 ft | 357 kts | 77° |
| 2026-04-28 17:53 | 51.71085 | -0.11041 | 29387 ft | 362 kts | 77° |
| 2026-04-28 17:53 | 51.72168 | -0.03049 | 29378 ft | 368 kts | 77° |
| 2026-04-28 17:54 | 51.73267 | 0.05086 | 29289 ft | 374 kts | 78° |
| 2026-04-28 17:54 | 51.74387 | 0.13304 | 29288 ft | 380 kts | 78° |
| 2026-04-28 17:55 | 51.75513 | 0.21689 | 29291 ft | 384 kts | 78° |
| 2026-04-28 17:55 | 51.76632 | 0.30169 | 29293 ft | 387 kts | 78° |
| 2026-04-28 17:56 | 51.77727 | 0.38534 | 29283 ft | 375 kts | 78° |
| 2026-04-28 17:56 | 51.78790 | 0.46674 | 29277 ft | 368 kts | 78° |
| 2026-04-28 17:57 | 51.79833 | 0.54726 | 29266 ft | 365 kts | 79° |
| 2026-04-28 17:57 | 51.80845 | 0.62741 | 29220 ft | 362 kts | 78° |
| 2026-04-28 17:58 | 51.82020 | 0.70618 | 29258 ft | 359 kts | 74° |
| 2026-04-28 17:58 | 51.83460 | 0.78315 | 29263 ft | 357 kts | 73° |
| 2026-04-28 17:59 | 51.84883 | 0.85939 | 29261 ft | 355 kts | 74° |
| 2026-04-28 17:59 | 51.86269 | 0.93585 | 29264 ft | 353 kts | 75° |
| 2026-04-28 18:00 | 51.87610 | 1.01213 | 29252 ft | 352 kts | 75° |
| 2026-04-28 18:00 | 51.88946 | 1.08825 | 29261 ft | 351 kts | 75° |
| 2026-04-28 18:01 | 51.90275 | 1.16429 | 29266 ft | 351 kts | 75° |
| 2026-04-28 18:01 | 51.91599 | 1.24031 | 29274 ft | 350 kts | 75° |
| 2026-04-28 18:02 | 51.92918 | 1.31635 | 29126 ft | 350 kts | 75° |
| 2026-04-28 18:02 | 51.93576 | 1.35425 | 28916 ft | 348 kts | 75° |
| 2026-04-28 18:02 | 51.94224 | 1.39208 | 28693 ft | 347 kts | 75° |
| 2026-04-28 18:03 | 51.94866 | 1.42927 | 28477 ft | 346 kts | 75° |
| 2026-04-28 18:03 | 51.95509 | 1.46681 | 28244 ft | 345 kts | 75° |
| 2026-04-28 18:03 | 51.96150 | 1.50419 | 28017 ft | 344 kts | 75° |
| 2026-04-28 18:03 | 51.96786 | 1.54158 | 27810 ft | 344 kts | 75° |
| 2026-04-28 18:04 | 51.97425 | 1.57895 | 27597 ft | 343 kts | 75° |
| 2026-04-28 18:04 | 51.98057 | 1.61620 | 27388 ft | 342 kts | 75° |
| 2026-04-28 18:04 | 51.98687 | 1.65345 | 27192 ft | 342 kts | 75° |
| 2026-04-28 18:04 | 51.99317 | 1.69092 | 27011 ft | 346 kts | 76° |
| 2026-04-28 18:05 | 51.99931 | 1.72890 | 26842 ft | 350 kts | 76° |
| 2026-04-28 18:05 | 52.00343 | 1.75486 | 26720 ft | 353 kts | 76° |
| 2026-04-28 18:05 | 52.01149 | 1.80625 | 26491 ft | 357 kts | 76° |
| 2026-04-28 18:05 | 52.01762 | 1.84553 | 26323 ft | 360 kts | 76° |
| 2026-04-28 18:06 | 52.02378 | 1.88507 | 26150 ft | 363 kts | 76° |
| 2026-04-28 18:06 | 52.02996 | 1.92489 | 25980 ft | 364 kts | 76° |
| 2026-04-28 18:06 | 52.03613 | 1.96492 | 25784 ft | 366 kts | 76° |
| 2026-04-28 18:06 | 52.04227 | 2.00515 | 25618 ft | 368 kts | 76° |
| 2026-04-28 18:07 | 52.04844 | 2.04559 | 25446 ft | 370 kts | 76° |
| 2026-04-28 18:07 | 52.05463 | 2.08627 | 25282 ft | 372 kts | 76° |
| 2026-04-28 18:07 | 52.06085 | 2.12719 | 25112 ft | 373 kts | 76° |
| 2026-04-28 18:07 | 52.06709 | 2.16815 | 24943 ft | 374 kts | 76° |
| 2026-04-28 18:08 | 52.07335 | 2.20933 | 24780 ft | 376 kts | 77° |
| 2026-04-28 18:08 | 52.07963 | 2.25056 | 24618 ft | 377 kts | 76° |
| 2026-04-28 18:08 | 52.08593 | 2.29193 | 24435 ft | 375 kts | 77° |
| 2026-04-28 18:08 | 52.09217 | 2.33290 | 24222 ft | 371 kts | 77° |
| 2026-04-28 18:09 | 52.09836 | 2.37348 | 24002 ft | 369 kts | 77° |
| 2026-04-28 18:09 | 52.10449 | 2.41384 | 23776 ft | 366 kts | 77° |
| 2026-04-28 18:09 | 52.11042 | 2.45394 | 23519 ft | 364 kts | 77° |
| 2026-04-28 18:09 | 52.11865 | 2.49271 | 23257 ft | 363 kts | 67° |
| 2026-04-28 18:10 | 52.12988 | 2.52942 | 23013 ft | 362 kts | 63° |
| 2026-04-28 18:10 | 52.14223 | 2.56509 | 22758 ft | 361 kts | 62° |
| 2026-04-28 18:10 | 52.15502 | 2.60023 | 22514 ft | 360 kts | 61° |
| 2026-04-28 18:10 | 52.16792 | 2.63510 | 22283 ft | 359 kts | 61° |
| 2026-04-28 18:11 | 52.18085 | 2.66985 | 22044 ft | 358 kts | 60° |
| 2026-04-28 18:11 | 52.19376 | 2.70451 | 21807 ft | 357 kts | 61° |
| 2026-04-28 18:11 | 52.20647 | 2.73929 | 21571 ft | 357 kts | 61° |
| 2026-04-28 18:11 | 52.21904 | 2.77409 | 21335 ft | 356 kts | 62° |
| 2026-04-28 18:12 | 52.23142 | 2.80847 | 21107 ft | 355 kts | 62° |
| 2026-04-28 18:12 | 52.24389 | 2.84324 | 20876 ft | 355 kts | 62° |
| 2026-04-28 18:12 | 52.25635 | 2.87794 | 20639 ft | 354 kts | 62° |
| 2026-04-28 18:12 | 52.26871 | 2.91260 | 20412 ft | 353 kts | 62° |
| 2026-04-28 18:13 | 52.28098 | 2.94709 | 20314 ft | 349 kts | 62° |
| 2026-04-28 18:13 | 52.29308 | 2.98112 | 20275 ft | 344 kts | 62° |
| 2026-04-28 18:13 | 52.30498 | 3.01481 | 20274 ft | 340 kts | 62° |
| 2026-04-28 18:13 | 52.31688 | 3.04842 | 20243 ft | 336 kts | 62° |
| 2026-04-28 18:14 | 52.32792 | 3.08171 | 20011 ft | 338 kts | 67° |
| 2026-04-28 18:14 | 52.33695 | 3.11730 | 19791 ft | 339 kts | 69° |
| 2026-04-28 18:14 | 52.34548 | 3.15332 | 19499 ft | 340 kts | 70° |
| 2026-04-28 18:14 | 52.35374 | 3.18932 | 18988 ft | 333 kts | 70° |
| 2026-04-28 18:15 | 52.36168 | 3.22427 | 18476 ft | 323 kts | 71° |
| 2026-04-28 18:15 | 52.36932 | 3.25847 | 17898 ft | 318 kts | 71° |
| 2026-04-28 18:15 | 52.37688 | 3.29216 | 17336 ft | 313 kts | 71° |
| 2026-04-28 18:15 | 52.38427 | 3.32546 | 16778 ft | 309 kts | 71° |
| 2026-04-28 18:16 | 52.39160 | 3.35840 | 16238 ft | 307 kts | 71° |
| 2026-04-28 18:16 | 52.39893 | 3.39100 | 15698 ft | 303 kts | 71° |
| 2026-04-28 18:16 | 52.40612 | 3.42339 | 15176 ft | 301 kts | 71° |
| 2026-04-28 18:16 | 52.41322 | 3.45553 | 14662 ft | 299 kts | 71° |
| 2026-04-28 18:17 | 52.42030 | 3.48748 | 14162 ft | 297 kts | 71° |
| 2026-04-28 18:17 | 52.42735 | 3.51929 | 13612 ft | 297 kts | 71° |
| 2026-04-28 18:17 | 52.43445 | 3.55104 | 13062 ft | 296 kts | 71° |
| 2026-04-28 18:17 | 52.44164 | 3.58257 | 12515 ft | 294 kts | 71° |
| 2026-04-28 18:18 | 52.44868 | 3.61407 | 11979 ft | 294 kts | 71° |
| 2026-04-28 18:18 | 52.45545 | 3.64481 | 11453 ft | 284 kts | 71° |
| 2026-04-28 18:18 | 52.46212 | 3.67501 | 10936 ft | 280 kts | 71° |
| 2026-04-28 18:18 | 52.46656 | 3.69535 | 10575 ft | 278 kts | 72° |
| 2026-04-28 18:19 | 52.47510 | 3.73455 | 9872 ft | 273 kts | 71° |
| 2026-04-28 18:19 | 52.48156 | 3.76367 | 9308 ft | 269 kts | 71° |
| 2026-04-28 18:19 | 52.48795 | 3.79239 | 8754 ft | 266 kts | 71° |
| 2026-04-28 18:19 | 52.49422 | 3.82073 | 8305 ft | 261 kts | 71° |
| 2026-04-28 18:20 | 52.50036 | 3.84845 | 7892 ft | 255 kts | 71° |
| 2026-04-28 18:20 | 52.50638 | 3.87565 | 7483 ft | 252 kts | 71° |
| 2026-04-28 18:20 | 52.51228 | 3.90262 | 7097 ft | 250 kts | 71° |
| 2026-04-28 18:20 | 52.51816 | 3.92937 | 6802 ft | 249 kts | 71° |
| 2026-04-28 18:21 | 52.52395 | 3.95639 | 6515 ft | 253 kts | 75° |
| 2026-04-28 18:21 | 52.52421 | 3.98511 | 6223 ft | 257 kts | 103° |
| 2026-04-28 18:21 | 52.51829 | 4.01294 | 5951 ft | 260 kts | 110° |
| 2026-04-28 18:21 | 52.51122 | 4.04047 | 5682 ft | 261 kts | 112° |
| 2026-04-28 18:22 | 52.50383 | 4.06774 | 5408 ft | 262 kts | 112° |
| 2026-04-28 18:22 | 52.49644 | 4.09507 | 5127 ft | 262 kts | 112° |
| 2026-04-28 18:22 | 52.48911 | 4.12254 | 4860 ft | 264 kts | 111° |
| 2026-04-28 18:22 | 52.48182 | 4.15010 | 4595 ft | 263 kts | 111° |
| 2026-04-28 18:23 | 52.47469 | 4.17772 | 4359 ft | 261 kts | 111° |
| 2026-04-28 18:23 | 52.46774 | 4.20487 | 4275 ft | 255 kts | 110° |
| 2026-04-28 18:23 | 52.46114 | 4.23143 | 4253 ft | 247 kts | 109° |
| 2026-04-28 18:23 | 52.45472 | 4.25726 | 4246 ft | 242 kts | 109° |
| 2026-04-28 18:24 | 52.44858 | 4.28223 | 4240 ft | 238 kts | 109° |
| 2026-04-28 18:24 | 52.44658 | 4.29038 | 4244 ft | 237 kts | 109° |
| 2026-04-28 18:24 | 52.43629 | 4.33203 | 4255 ft | 230 kts | 109° |
| 2026-04-28 18:24 | 52.43036 | 4.35577 | 4244 ft | 220 kts | 109° |
| 2026-04-28 18:25 | 52.42474 | 4.37826 | 4234 ft | 214 kts | 109° |
| 2026-04-28 18:25 | 52.41918 | 4.40078 | 4235 ft | 215 kts | 109° |
| 2026-04-28 18:25 | 52.41358 | 4.42375 | 4252 ft | 219 kts | 108° |
| 2026-04-28 18:26 | 52.40227 | 4.46954 | 4253 ft | 212 kts | 109° |
| 2026-04-28 18:26 | 52.39674 | 4.49161 | 4251 ft | 208 kts | 109° |
| 2026-04-28 18:26 | 52.39126 | 4.51350 | 4257 ft | 207 kts | 109° |
| 2026-04-28 18:26 | 52.38582 | 4.53522 | 4256 ft | 207 kts | 109° |
| 2026-04-28 18:27 | 52.38219 | 4.54964 | 4266 ft | 207 kts | 109° |
| 2026-04-28 18:27 | 52.37677 | 4.57142 | 4266 ft | 206 kts | 109° |
| 2026-04-28 18:27 | 52.37138 | 4.59324 | 4271 ft | 208 kts | 109° |
| 2026-04-28 18:27 | 52.35787 | 4.61596 | 4276 ft | 222 kts | 154° |
| 2026-04-28 18:28 | 52.34763 | 4.61892 | 4290 ft | 231 kts | 177° |
| 2026-04-28 18:28 | 52.33209 | 4.61100 | 4290 ft | 243 kts | 210° |
| 2026-04-28 18:28 | 52.32060 | 4.59061 | 4296 ft | 246 kts | 236° |
| 2026-04-28 18:28 | 52.31216 | 4.56646 | 4278 ft | 244 kts | 240° |
| 2026-04-28 18:29 | 52.30430 | 4.54206 | 4265 ft | 241 kts | 242° |
| 2026-04-28 18:29 | 52.29692 | 4.51815 | 4249 ft | 230 kts | 242° |
| 2026-04-28 18:29 | 52.29001 | 4.49515 | 4238 ft | 222 kts | 242° |
| 2026-04-28 18:29 | 52.28333 | 4.47279 | 4221 ft | 217 kts | 242° |
| 2026-04-28 18:30 | 52.27680 | 4.45086 | 4219 ft | 213 kts | 242° |
| 2026-04-28 18:30 | 52.27250 | 4.43638 | 4124 ft | 216 kts | 242° |
| 2026-04-28 18:30 | 52.26358 | 4.40679 | 3826 ft | 221 kts | 242° |
| 2026-04-28 18:30 | 52.25670 | 4.38417 | 3598 ft | 223 kts | 242° |
| 2026-04-28 18:31 | 52.24973 | 4.36151 | 3368 ft | 224 kts | 242° |
| 2026-04-28 18:31 | 52.24000 | 4.34217 | 3114 ft | 219 kts | 208° |
| 2026-04-28 18:31 | 52.22624 | 4.33525 | 3018 ft | 200 kts | 169° |
| 2026-04-28 18:31 | 52.21366 | 4.34107 | 2990 ft | 184 kts | 148° |
| 2026-04-28 18:32 | 52.20290 | 4.35208 | 2725 ft | 180 kts | 121° |
| 2026-04-28 18:32 | 52.19838 | 4.37047 | 2458 ft | 176 kts | 97° |
| 2026-04-28 18:32 | 52.19628 | 4.38911 | 2183 ft | 156 kts | 94° |
| 2026-04-28 18:32 | 52.19474 | 4.40528 | 2006 ft | 134 kts | 93° |
| 2026-04-28 18:33 | 52.19338 | 4.42174 | 1983 ft | 154 kts | 92° |
| 2026-04-28 18:33 | 52.19205 | 4.43937 | 1999 ft | 157 kts | 92° |
| 2026-04-28 18:33 | 52.19077 | 4.45711 | 2007 ft | 156 kts | 92° |
| 2026-04-28 18:33 | 52.19014 | 4.47482 | 2008 ft | 158 kts | 76° |
| 2026-04-28 18:34 | 52.19492 | 4.49042 | 2024 ft | 154 kts | 60° |
| 2026-04-28 18:34 | 52.20020 | 4.50556 | 2004 ft | 157 kts | 60° |
| 2026-04-28 18:34 | 52.20565 | 4.52087 | 2015 ft | 156 kts | 60° |
| 2026-04-28 18:34 | 52.21124 | 4.53596 | 2020 ft | 154 kts | 59° |
| 2026-04-28 18:35 | 52.21675 | 4.55047 | 1999 ft | 149 kts | 59° |
| 2026-04-28 18:35 | 52.22224 | 4.56463 | 1978 ft | 151 kts | 58° |
| 2026-04-28 18:35 | 52.22800 | 4.57928 | 1979 ft | 156 kts | 58° |
| 2026-04-28 18:35 | 52.23390 | 4.59424 | 1994 ft | 157 kts | 58° |
| 2026-04-28 18:36 | 52.23978 | 4.60917 | 1831 ft | 153 kts | 59° |
| 2026-04-28 18:36 | 52.24524 | 4.62323 | 1623 ft | 147 kts | 59° |
| 2026-04-28 18:36 | 52.25060 | 4.63740 | 1448 ft | 144 kts | 58° |
| 2026-04-28 18:36 | 52.25602 | 4.65121 | 1270 ft | 145 kts | 57° |
| 2026-04-28 18:37 | 52.26145 | 4.66483 | 1056 ft | 137 kts | 58° |
| 2026-04-28 18:37 | 52.26606 | 4.67696 | 857 ft | 120 kts | 59° |
| 2026-04-28 18:37 | 52.27007 | 4.68794 | 818 ft | 112 kts | 57° |
| 2026-04-28 18:37 | 52.27433 | 4.69857 | 651 ft | 112 kts | 56° |
| 2026-04-28 18:38 | 52.27873 | 4.70984 | 484 ft | 121 kts | 59° |
| 2026-04-28 18:38 | 52.28289 | 4.72114 | 253 ft | 114 kts | 55° |
| 2026-04-28 18:38 | 52.28709 | 4.73198 | 69 ft | 110 kts | 57° |
| 2026-04-28 18:38 | 52.29098 | 4.74205 | 2 ft | 98 kts | 58° |
| 2026-04-28 18:39 | 52.29387 | 4.74966 | -4 ft | 62 kts | 58° |
| 2026-04-28 18:39 | 52.29578 | 4.75461 | -5 ft | 43 kts | 58° |
| 2026-04-28 18:39 | 52.29708 | 4.75736 | -5 ft | 21 kts | 36° |
| 2026-04-28 18:39 | 52.29816 | 4.75833 | -4 ft | 14 kts | 28° |
| 2026-04-28 18:40 | 52.29887 | 4.75892 | -4 ft | 8 kts | 28° |
| 2026-04-28 18:40 | 52.29914 | 4.75916 | -4 ft | 2 kts | 28° |
| 2026-04-28 18:40 | 52.29917 | 4.75919 | -4 ft | 0 kts | 29° |
| 2026-04-28 18:41 | 52.29926 | 4.75927 | -4 ft | 2 kts | 29° |
| 2026-04-28 18:41 | 52.29960 | 4.75958 | -4 ft | 9 kts | 29° |
| 2026-04-28 18:41 | 52.30009 | 4.76030 | -4 ft | 13 kts | 55° |
| 2026-04-28 18:41 | 52.30050 | 4.76136 | -4 ft | 9 kts | 58° |
| 2026-04-28 18:42 | 52.30078 | 4.76209 | -4 ft | 6 kts | 58° |
| 2026-04-28 18:42 | 52.30094 | 4.76253 | -4 ft | 3 kts | 58° |
| 2026-04-28 18:42 | 52.30103 | 4.76277 | -4 ft | 4 kts | 59° |
| 2026-04-28 18:42 | 52.30124 | 4.76334 | -4 ft | 4 kts | 58° |
| 2026-04-28 18:43 | 52.30140 | 4.76376 | -4 ft | 4 kts | 58° |
| 2026-04-28 18:43 | 52.30151 | 4.76404 | -4 ft | 2 kts | 58° |
| 2026-04-28 18:43 | 52.30159 | 4.76426 | -4 ft | 4 kts | 58° |
| 2026-04-28 18:43 | 52.30186 | 4.76495 | -4 ft | 11 kts | 58° |
| 2026-04-28 18:44 | 52.30226 | 4.76601 | -4 ft | 9 kts | 58° |
| 2026-04-28 18:44 | 52.30292 | 4.76773 | -4 ft | 11 kts | 57° |
| 2026-04-28 18:44 | 52.30336 | 4.76888 | -4 ft | 13 kts | 57° |
| 2026-04-28 18:45 | 52.30379 | 4.76998 | -4 ft | 10 kts | 55° |
| 2026-04-28 18:45 | 52.30435 | 4.77037 | -4 ft | 10 kts | 346° |
| 2026-04-28 18:45 | 52.30509 | 4.76967 | -4 ft | 14 kts | 327° |
| 2026-04-28 18:45 | 52.30589 | 4.76883 | -4 ft | 13 kts | 329° |
| 2026-04-28 18:46 | 52.30660 | 4.76900 | -4 ft | 9 kts | 37° |
| 2026-04-28 18:46 | 52.30702 | 4.76945 | -4 ft | 5 kts | 32° |
| 2026-04-28 18:46 | 52.30710 | 4.76954 | -4 ft | 0 kts | 32° |